createdAt,value
2019-02-22T00:01:40.856Z,7.80
2019-02-22T00:04:09.282Z,7.70
2019-02-22T00:06:37.584Z,7.60
2019-02-22T00:09:06.597Z,7.50
2019-02-22T00:11:35.103Z,7.40
2019-02-22T00:14:04.008Z,7.50
2019-02-22T00:16:32.548Z,7.30
2019-02-22T00:19:01.190Z,7.20
2019-02-22T00:21:33.625Z,7.10
2019-02-22T00:24:02.107Z,7.00
2019-02-22T00:26:30.589Z,6.90
2019-02-22T00:28:59.000Z,6.90
2019-02-22T00:31:27.461Z,7.00
2019-02-22T00:33:55.958Z,7.00
2019-02-22T00:36:24.631Z,7.00
2019-02-22T00:38:53.078Z,7.00
2019-02-22T00:41:21.482Z,7.10
2019-02-22T00:43:50.068Z,7.10
2019-02-22T00:46:18.341Z,7.20
2019-02-22T00:48:46.690Z,7.20
2019-02-22T00:51:15.125Z,7.20
2019-02-22T00:53:43.479Z,7.10
2019-02-22T00:56:11.866Z,7.10
2019-02-22T00:58:59.930Z,7.10
2019-02-22T01:01:28.337Z,7.20
2019-02-22T01:04:01.325Z,7.20
2019-02-22T01:06:29.860Z,7.20
2019-02-22T01:08:58.421Z,7.20
2019-02-22T01:11:26.862Z,7.20
2019-02-22T01:13:55.288Z,7.20
2019-02-22T01:16:23.668Z,7.10
2019-02-22T01:18:52.120Z,7.10
2019-02-22T01:21:20.544Z,7.20
2019-02-22T01:24:08.314Z,7.20
2019-02-22T01:26:36.849Z,7.10
2019-02-22T01:29:05.230Z,7.00
2019-02-22T01:31:33.671Z,6.90
2019-02-22T01:34:02.113Z,7.00
2019-02-22T01:36:30.606Z,7.10
2019-02-22T01:38:58.957Z,7.10
2019-02-22T01:41:27.342Z,7.10
2019-02-22T01:43:55.786Z,7.00
2019-02-22T01:46:24.153Z,6.90
2019-02-22T01:48:52.514Z,6.80
2019-02-22T01:51:21.078Z,6.80
2019-02-22T01:53:49.521Z,6.80
2019-02-22T01:56:17.889Z,6.90
2019-02-22T01:58:48.971Z,6.90
2019-02-22T02:01:16.425Z,6.90
2019-02-22T02:03:44.944Z,6.90
2019-02-22T02:06:13.387Z,6.90
2019-02-22T02:08:41.894Z,6.90
2019-02-22T02:11:10.268Z,6.90
2019-02-22T02:13:38.772Z,6.90
2019-02-22T02:16:07.125Z,7.00
2019-02-22T02:18:35.515Z,7.00
2019-02-22T02:21:03.961Z,7.00
2019-02-22T02:23:32.356Z,7.00
2019-02-22T02:26:00.896Z,7.00
2019-02-22T02:28:29.338Z,7.00
2019-02-22T02:30:57.761Z,7.00
2019-02-22T02:33:26.274Z,7.00
2019-02-22T02:36:14.219Z,7.00
2019-02-22T02:38:42.582Z,7.00
2019-02-22T02:41:11.684Z,7.00
2019-02-22T02:43:40.321Z,7.00
2019-02-22T02:46:08.873Z,6.90
2019-02-22T02:48:37.444Z,6.80
2019-02-22T02:51:05.942Z,6.70
2019-02-22T02:53:34.555Z,6.70
2019-02-22T02:56:03.029Z,6.80
2019-02-22T02:58:31.552Z,6.80
2019-02-22T03:01:00.030Z,6.70
2019-02-22T03:03:28.486Z,6.70
2019-02-22T03:06:04.465Z,6.70
2019-02-22T03:08:34.434Z,6.60
2019-02-22T03:11:02.869Z,6.60
2019-02-22T03:13:31.307Z,6.60
2019-02-22T03:15:59.748Z,6.60
2019-02-22T03:18:28.139Z,6.50
2019-02-22T03:20:56.608Z,6.40
2019-02-22T03:23:25.045Z,6.40
2019-02-22T03:25:53.425Z,6.30
2019-02-22T03:28:21.958Z,6.20
2019-02-22T03:30:50.692Z,6.20
2019-02-22T03:33:19.299Z,6.20
2019-02-22T03:35:47.749Z,6.10
2019-02-22T03:38:18.348Z,6.10
2019-02-22T03:40:46.681Z,6.10
2019-02-22T03:43:15.054Z,6.00
2019-02-22T03:45:43.622Z,6.00
2019-02-22T03:48:17.045Z,6.00
2019-02-22T03:50:45.496Z,6.00
2019-02-22T03:53:15.606Z,5.90
2019-02-22T03:55:43.999Z,6.00
2019-02-22T03:58:12.421Z,6.00
2019-02-22T04:00:43.811Z,6.10
2019-02-22T04:03:12.242Z,6.10
2019-02-22T04:05:40.688Z,6.20
2019-02-22T04:08:09.021Z,6.20
2019-02-22T04:10:37.562Z,6.20
2019-02-22T04:13:05.932Z,6.20
2019-02-22T04:15:34.455Z,6.10
2019-02-22T04:18:02.930Z,6.20
2019-02-22T04:20:31.322Z,6.20
2019-02-22T04:22:59.833Z,6.10
2019-02-22T04:25:28.138Z,6.10
2019-02-22T04:27:56.809Z,6.10
2019-02-22T04:30:25.234Z,6.10
2019-02-22T04:32:53.711Z,6.00
2019-02-22T04:35:22.099Z,6.00
2019-02-22T04:37:50.599Z,5.90
2019-02-22T04:40:19.033Z,5.70
2019-02-22T04:42:47.506Z,5.70
2019-02-22T04:45:15.937Z,5.70
2019-02-22T04:47:44.400Z,5.70
2019-02-22T04:50:12.882Z,5.80
2019-02-22T04:52:41.347Z,5.80
2019-02-22T04:55:09.832Z,5.80
2019-02-22T04:57:38.220Z,5.90
2019-02-22T05:00:07.249Z,5.90
2019-02-22T05:02:55.149Z,5.80
2019-02-22T05:05:24.602Z,5.80
2019-02-22T05:07:53.067Z,5.80
2019-02-22T05:10:24.081Z,5.90
2019-02-22T05:12:52.545Z,6.00
2019-02-22T05:15:21.017Z,6.00
2019-02-22T05:17:49.498Z,6.00
2019-02-22T05:20:18.981Z,6.00
2019-02-22T05:22:47.417Z,6.00
2019-02-22T05:25:15.882Z,6.00
2019-02-22T05:27:44.488Z,6.10
2019-02-22T05:30:12.972Z,6.10
2019-02-22T05:32:41.426Z,6.20
2019-02-22T05:35:09.931Z,6.20
2019-02-22T05:37:38.402Z,6.20
2019-02-22T05:40:07.035Z,6.20
2019-02-22T05:42:35.784Z,6.20
2019-02-22T05:45:05.069Z,6.20
2019-02-22T05:47:33.468Z,6.20
2019-02-22T05:50:02.043Z,6.20
2019-02-22T05:52:30.456Z,6.10
2019-02-22T05:54:58.999Z,6.10
2019-02-22T05:57:27.486Z,6.10
2019-02-22T05:59:55.961Z,6.10
2019-02-22T06:02:24.415Z,6.10
2019-02-22T06:04:52.934Z,6.10
2019-02-22T06:07:21.385Z,6.10
2019-02-22T06:09:49.899Z,6.10
2019-02-22T06:12:18.727Z,6.10
2019-02-22T06:14:47.270Z,6.10
2019-02-22T06:17:15.635Z,6.10
2019-02-22T06:19:44.264Z,6.10
2019-02-22T06:22:12.618Z,6.10
2019-02-22T06:24:41.077Z,6.10
2019-02-22T06:27:09.598Z,6.10
2019-02-22T06:29:38.085Z,6.10
2019-02-22T06:32:06.454Z,6.20
2019-02-22T06:34:34.942Z,6.10
2019-02-22T06:37:03.446Z,6.10
2019-02-22T06:39:31.914Z,6.10
2019-02-22T06:42:00.352Z,6.10
2019-02-22T06:44:28.743Z,6.20
2019-02-22T06:46:57.201Z,6.20
2019-02-22T06:49:25.902Z,6.20
2019-02-22T06:51:54.346Z,6.20
2019-02-22T06:54:22.835Z,6.20
2019-02-22T06:56:51.329Z,6.30
2019-02-22T06:59:19.659Z,6.30
2019-02-22T07:01:50.000Z,6.30
2019-02-22T07:04:37.634Z,6.40
2019-02-22T07:07:06.039Z,6.40
2019-02-22T07:09:34.498Z,6.40
2019-02-22T07:12:04.572Z,6.50
2019-02-22T07:14:33.036Z,6.50
2019-02-22T07:17:01.465Z,6.60
2019-02-22T07:19:30.023Z,6.70
2019-02-22T07:21:58.457Z,6.70
2019-02-22T07:24:26.817Z,6.80
2019-02-22T07:26:55.205Z,6.80
2019-02-22T07:29:23.574Z,6.80
2019-02-22T07:31:52.019Z,7.00
2019-02-22T07:34:20.555Z,7.00
2019-02-22T07:36:48.918Z,7.10
2019-02-22T07:39:27.288Z,7.20
2019-02-22T07:41:47.521Z,7.30
2019-02-22T07:44:15.957Z,7.40
2019-02-22T07:46:44.345Z,7.40
2019-02-22T07:49:32.268Z,7.50
2019-02-22T07:52:00.677Z,7.60
2019-02-22T07:54:29.096Z,7.70
2019-02-22T07:56:58.674Z,7.80
2019-02-22T07:59:27.052Z,7.90
2019-02-22T08:01:55.473Z,8.00
2019-02-22T08:04:23.903Z,8.00
2019-02-22T08:06:52.353Z,8.10
2019-02-22T08:09:20.808Z,8.20
2019-02-22T08:11:49.246Z,8.30
2019-02-22T08:14:17.865Z,8.40
2019-02-22T08:16:46.320Z,8.40
2019-02-22T08:19:14.745Z,8.60
2019-02-22T08:22:03.582Z,8.60
2019-02-22T08:24:32.148Z,8.70
2019-02-22T08:27:00.564Z,8.70
2019-02-22T08:29:29.085Z,8.80
2019-02-22T08:31:57.603Z,8.80
2019-02-22T08:34:32.106Z,8.80
2019-02-22T08:37:00.713Z,8.90
2019-02-22T08:39:29.133Z,9.00
2019-02-22T08:41:57.598Z,9.00
2019-02-22T08:44:26.043Z,9.10
2019-02-22T08:46:54.533Z,9.20
2019-02-22T08:49:23.022Z,9.30
2019-02-22T08:51:51.574Z,9.30
2019-02-22T08:54:20.077Z,9.40
2019-02-22T08:56:48.506Z,9.50
2019-02-22T08:59:17.009Z,9.50
2019-02-22T09:01:45.498Z,9.50
2019-02-22T09:04:13.925Z,9.60
2019-02-22T09:06:42.484Z,9.70
2019-02-22T09:09:11.090Z,9.70
2019-02-22T09:11:39.590Z,9.80
2019-02-22T09:14:08.079Z,9.80
2019-02-22T09:16:37.606Z,9.90
2019-02-22T09:19:06.080Z,10.00
2019-02-22T09:21:34.530Z,10.10
2019-02-22T09:24:03.034Z,10.10
2019-02-22T09:26:31.580Z,10.20
2019-02-22T09:29:00.074Z,10.20
2019-02-22T09:31:28.638Z,10.30
2019-02-22T09:33:56.936Z,10.40
2019-02-22T09:36:25.325Z,10.40
2019-02-22T09:38:53.802Z,10.50
2019-02-22T09:41:22.262Z,10.50
2019-02-22T09:43:55.329Z,10.60
2019-02-22T09:46:20.813Z,10.60
2019-02-22T09:48:49.379Z,10.70
2019-02-22T09:51:17.930Z,10.70
2019-02-22T09:53:46.450Z,10.80
2019-02-22T09:56:14.942Z,10.90
2019-02-22T09:58:43.395Z,11.00
2019-02-22T10:01:11.736Z,11.00
2019-02-22T10:03:41.290Z,11.10
2019-02-22T10:06:09.783Z,11.20
2019-02-22T10:08:38.237Z,11.30
2019-02-22T10:11:06.694Z,11.30
2019-02-22T10:13:35.260Z,11.40
2019-02-22T10:16:23.265Z,11.50
2019-02-22T10:18:51.657Z,11.50
2019-02-22T10:21:20.091Z,11.60
2019-02-22T10:23:49.553Z,11.70
2019-02-22T10:26:18.037Z,11.70
2019-02-22T10:29:05.973Z,11.80
2019-02-22T10:31:34.470Z,11.90
2019-02-22T10:34:02.881Z,12.00
2019-02-22T10:36:31.510Z,12.00
2019-02-22T10:39:19.448Z,12.00
2019-02-22T10:41:48.087Z,12.10
2019-02-22T10:44:18.133Z,12.20
2019-02-22T10:46:46.624Z,12.30
2019-02-22T10:49:15.110Z,12.40
2019-02-22T10:51:43.630Z,12.40
2019-02-22T10:54:12.044Z,12.50
2019-02-22T10:56:40.397Z,12.50
2019-02-22T10:59:08.928Z,12.50
2019-02-22T11:01:37.318Z,12.60
2019-02-22T11:04:05.772Z,12.60
2019-02-22T11:06:35.295Z,12.80
2019-02-22T11:09:04.793Z,12.90
2019-02-22T11:11:33.254Z,13.10
2019-02-22T11:14:01.769Z,13.10
2019-02-22T11:16:30.204Z,13.20
2019-02-22T11:18:58.864Z,13.30
2019-02-22T11:21:27.380Z,13.30
2019-02-22T11:23:55.817Z,13.40
2019-02-22T11:26:24.318Z,13.50
2019-02-22T11:28:52.837Z,13.60
2019-02-22T11:31:21.366Z,13.60
2019-02-22T11:33:49.809Z,13.50
2019-02-22T11:36:18.235Z,13.70
2019-02-22T11:38:46.634Z,13.70
2019-02-22T11:41:15.227Z,13.70
2019-02-22T11:43:43.660Z,13.70
2019-02-22T11:46:12.096Z,13.80
2019-02-22T11:49:00.034Z,13.90
2019-02-22T11:51:28.506Z,14.00
2019-02-22T11:53:56.942Z,14.10
2019-02-22T11:56:25.566Z,14.20
2019-02-22T11:58:53.943Z,14.40
2019-02-22T12:01:23.801Z,14.60
2019-02-22T12:03:52.389Z,14.80
2019-02-22T12:06:20.900Z,15.00
2019-02-22T12:08:49.351Z,15.10
2019-02-22T12:11:17.784Z,15.10
2019-02-22T12:13:46.161Z,15.10
2019-02-22T12:16:14.611Z,15.30
2019-02-22T12:18:43.158Z,15.40
2019-02-22T12:21:11.599Z,15.50
2019-02-22T12:23:40.097Z,15.50
2019-02-22T12:26:08.671Z,15.60
2019-02-22T12:28:37.169Z,15.70
2019-02-22T12:31:05.605Z,15.90
2019-02-22T12:33:34.214Z,16.10
2019-02-22T12:36:02.656Z,16.10
2019-02-22T12:38:31.106Z,16.20
2019-02-22T12:40:59.661Z,16.20
2019-02-22T12:43:28.089Z,16.20
2019-02-22T12:45:56.543Z,16.20
2019-02-22T12:48:25.090Z,16.40
2019-02-22T12:50:53.541Z,16.50
2019-02-22T12:53:21.935Z,16.70
2019-02-22T12:55:50.556Z,17.50
2019-02-22T12:58:19.021Z,19.70
2019-02-22T13:00:47.550Z,22.70
2019-02-22T13:03:16.066Z,24.50
2019-02-22T13:05:44.604Z,25.80
2019-02-22T13:08:12.977Z,26.50
2019-02-22T13:10:41.466Z,26.80
2019-02-22T13:13:09.844Z,27.10
2019-02-22T13:15:38.283Z,27.50
2019-02-22T13:18:06.842Z,27.90
2019-02-22T13:20:35.319Z,28.00
2019-02-22T13:23:03.657Z,28.30
2019-02-22T13:25:32.150Z,28.50
2019-02-22T13:28:00.533Z,28.50
2019-02-22T13:30:28.899Z,28.70
2019-02-22T13:32:57.397Z,28.70
2019-02-22T13:35:25.904Z,28.60
2019-02-22T13:37:54.939Z,28.70
2019-02-22T13:40:23.481Z,28.90
2019-02-22T13:42:51.874Z,29.10
2019-02-22T13:45:39.820Z,29.30
2019-02-22T13:48:08.242Z,29.20
2019-02-22T13:50:36.623Z,29.30
2019-02-22T13:53:05.115Z,29.40
2019-02-22T13:55:52.965Z,29.70
2019-02-22T13:58:21.457Z,29.90
2019-02-22T14:00:49.973Z,29.80
2019-02-22T14:03:18.397Z,29.70
2019-02-22T14:05:46.952Z,29.80
2019-02-22T14:08:15.421Z,29.80
2019-02-22T14:10:43.953Z,29.60
2019-02-22T14:13:12.380Z,29.80
2019-02-22T14:15:40.779Z,29.90
2019-02-22T14:18:28.721Z,29.90
2019-02-22T14:20:57.105Z,29.50
2019-02-22T14:23:25.610Z,29.00
2019-02-22T14:25:54.082Z,28.40
2019-02-22T14:28:22.490Z,27.70
2019-02-22T14:30:50.964Z,27.30
2019-02-22T14:33:19.457Z,27.10
2019-02-22T14:35:47.841Z,27.20
2019-02-22T14:38:16.250Z,27.40
2019-02-22T14:40:44.927Z,27.60
2019-02-22T14:43:16.579Z,27.60
2019-02-22T14:45:49.696Z,27.60
2019-02-22T14:48:13.517Z,27.60
2019-02-22T14:50:41.986Z,27.60
2019-02-22T14:53:19.034Z,27.80
2019-02-22T14:55:40.606Z,27.80
2019-02-22T14:58:09.133Z,27.70
2019-02-22T15:00:37.597Z,28.10
2019-02-22T15:03:06.138Z,28.50
2019-02-22T15:05:34.605Z,28.70
2019-02-22T15:08:03.007Z,28.50
2019-02-22T15:10:31.515Z,28.60
2019-02-22T15:13:19.334Z,28.80
2019-02-22T15:16:00.179Z,28.90
2019-02-22T15:18:22.526Z,28.70
2019-02-22T15:20:50.988Z,28.70
2019-02-22T15:23:19.437Z,28.70
2019-02-22T15:25:47.794Z,28.50
2019-02-22T15:28:16.236Z,28.30
2019-02-22T15:30:45.401Z,28.30
2019-02-22T15:33:14.017Z,28.30
2019-02-22T15:35:42.457Z,28.20
2019-02-22T15:38:11.248Z,27.90
2019-02-22T15:40:58.981Z,27.80
2019-02-22T15:43:27.459Z,27.60
2019-02-22T15:45:55.971Z,27.30
2019-02-22T15:48:24.412Z,27.10
2019-02-22T15:50:52.861Z,26.90
2019-02-22T15:53:21.386Z,26.60
2019-02-22T15:55:49.733Z,26.40
2019-02-22T15:58:18.232Z,26.20
2019-02-22T16:00:46.702Z,26.00
2019-02-22T16:03:15.128Z,25.80
2019-02-22T16:05:45.172Z,25.60
2019-02-22T16:08:13.740Z,25.50
2019-02-22T16:10:42.171Z,25.50
2019-02-22T16:13:10.634Z,25.40
2019-02-22T16:15:40.683Z,25.30
2019-02-22T16:18:09.279Z,25.10
2019-02-22T16:20:37.726Z,24.70
2019-02-22T16:23:06.177Z,24.40
2019-02-22T16:25:34.639Z,24.00
2019-02-22T16:28:03.092Z,23.60
2019-02-22T16:30:32.368Z,23.30
2019-02-22T16:33:01.020Z,22.90
2019-02-22T16:35:29.428Z,22.60
2019-02-22T16:37:58.153Z,22.20
2019-02-22T16:40:26.593Z,21.80
2019-02-22T16:42:54.918Z,21.10
2019-02-22T16:45:23.460Z,20.40
2019-02-22T16:47:52.062Z,19.80
2019-02-22T16:50:20.421Z,19.40
2019-02-22T16:52:48.818Z,19.00
2019-02-22T16:55:17.269Z,18.80
2019-02-22T16:57:45.767Z,18.50
2019-02-22T17:00:15.303Z,18.20
2019-02-22T17:02:43.716Z,18.00
2019-02-22T17:05:14.876Z,17.80
2019-02-22T17:07:43.254Z,17.70
2019-02-22T17:10:11.931Z,17.50
2019-02-22T17:12:40.429Z,17.40
2019-02-22T17:15:13.554Z,17.30
2019-02-22T17:17:42.020Z,17.10
2019-02-22T17:20:11.822Z,17.10
2019-02-22T17:22:40.296Z,16.90
2019-02-22T17:25:11.934Z,16.90
2019-02-22T17:27:40.275Z,16.70
2019-02-22T17:30:11.916Z,16.70
2019-02-22T17:32:40.427Z,16.60
2019-02-22T17:35:08.732Z,16.50
2019-02-22T17:37:37.207Z,16.40
2019-02-22T17:40:12.088Z,16.30
2019-02-22T17:42:40.512Z,16.20
2019-02-22T17:45:09.013Z,16.20
2019-02-22T17:47:37.516Z,16.10
2019-02-22T17:50:08.017Z,16.00
2019-02-22T17:52:36.451Z,15.90
2019-02-22T17:55:09.314Z,15.90
2019-02-22T17:57:37.945Z,15.80
2019-02-22T18:00:13.656Z,15.70
2019-02-22T18:02:42.115Z,15.70
2019-02-22T18:05:30.017Z,15.60
2019-02-22T18:07:58.489Z,15.60
2019-02-22T18:10:26.846Z,15.50
2019-02-22T18:12:55.310Z,15.40
2019-02-22T18:15:23.876Z,15.40
2019-02-22T18:17:52.380Z,15.30
2019-02-22T18:20:20.879Z,15.20
2019-02-22T18:22:49.379Z,15.30
2019-02-22T18:25:17.748Z,15.10
2019-02-22T18:27:46.105Z,15.10
2019-02-22T18:30:17.185Z,15.00
2019-02-22T18:32:45.554Z,14.90
2019-02-22T18:35:13.947Z,14.90
2019-02-22T18:37:42.412Z,14.90
2019-02-22T18:40:13.475Z,14.80
2019-02-22T18:42:41.994Z,14.80
2019-02-22T18:45:12.337Z,14.70
2019-02-22T18:47:40.815Z,14.70
2019-02-22T18:50:10.700Z,14.70
2019-02-22T18:52:39.238Z,14.70
2019-02-22T18:55:09.590Z,14.70
2019-02-22T18:57:38.012Z,14.70
2019-02-22T19:00:20.690Z,14.60
2019-02-22T19:02:49.357Z,14.50
2019-02-22T19:05:17.842Z,14.40
2019-02-22T19:07:46.444Z,14.40
2019-02-22T19:10:16.753Z,14.30
2019-02-22T19:12:45.264Z,14.20
2019-02-22T19:15:14.527Z,14.10
2019-02-22T19:17:42.957Z,14.10
2019-02-22T19:20:21.647Z,14.00
2019-02-22T19:22:50.165Z,13.90
2019-02-22T19:25:18.650Z,13.90
2019-02-22T19:27:47.090Z,13.80
2019-02-22T19:30:21.078Z,13.80
2019-02-22T19:32:49.521Z,13.70
2019-02-22T19:35:18.875Z,13.70
2019-02-22T19:37:47.505Z,13.60
2019-02-22T19:40:19.168Z,13.60
2019-02-22T19:42:47.528Z,13.50
2019-02-22T19:45:15.896Z,13.50
2019-02-22T19:47:44.306Z,13.50
2019-02-22T19:50:13.915Z,13.40
2019-02-22T19:52:42.580Z,13.40
2019-02-22T19:55:18.667Z,13.30
2019-02-22T19:57:47.114Z,13.20
2019-02-22T20:00:17.709Z,13.20
2019-02-22T20:02:46.160Z,13.20
2019-02-22T20:05:15.488Z,13.10
2019-02-22T20:07:44.335Z,13.10
2019-02-22T20:10:18.944Z,13.10
2019-02-22T20:12:47.508Z,13.00
2019-02-22T20:15:18.897Z,13.00
2019-02-22T20:17:53.800Z,12.90
2019-02-22T20:20:18.612Z,12.90
2019-02-22T20:22:47.122Z,12.80
2019-02-22T20:25:15.804Z,12.80
2019-02-22T20:27:44.408Z,12.80
2019-02-22T20:30:18.180Z,12.70
2019-02-22T20:32:47.346Z,12.70
2019-02-22T20:35:27.277Z,12.60
2019-02-22T20:37:56.317Z,12.50
2019-02-22T20:40:25.313Z,12.30
2019-02-22T20:42:54.126Z,12.20
2019-02-22T20:45:23.094Z,12.10
2019-02-22T20:47:52.057Z,12.10
2019-02-22T20:50:21.104Z,12.10
2019-02-22T20:52:49.948Z,12.10
2019-02-22T20:55:18.858Z,12.10
2019-02-22T20:57:48.098Z,12.10
2019-02-22T21:00:22.459Z,12.10
2019-02-22T21:02:51.357Z,12.10
2019-02-22T21:05:20.191Z,12.10
2019-02-22T21:07:49.137Z,12.10
2019-02-22T21:10:20.008Z,12.10
2019-02-22T21:12:49.017Z,12.00
2019-02-22T21:15:17.932Z,12.00
2019-02-22T21:17:46.504Z,12.00
2019-02-22T21:20:19.108Z,12.00
2019-02-22T21:22:47.551Z,12.00
2019-02-22T21:25:15.909Z,11.90
2019-02-22T21:27:44.376Z,12.00
2019-02-22T21:30:16.927Z,11.90
2019-02-22T21:32:45.409Z,11.90
2019-02-22T21:35:13.918Z,11.90
2019-02-22T21:37:43.341Z,11.90
2019-02-22T21:40:14.490Z,11.80
2019-02-22T21:42:43.129Z,11.90
2019-02-22T21:45:13.691Z,11.80
2019-02-22T21:47:53.736Z,11.60
2019-02-22T21:50:13.608Z,11.30
2019-02-22T21:52:42.011Z,11.10
2019-02-22T21:55:15.583Z,10.90
2019-02-22T21:57:44.088Z,10.70
2019-02-22T22:00:23.535Z,10.70
2019-02-22T22:02:52.011Z,10.60
2019-02-22T22:05:20.308Z,10.50
2019-02-22T22:07:48.700Z,10.40
2019-02-22T22:10:17.301Z,10.60
2019-02-22T22:12:45.665Z,10.60
2019-02-22T22:15:15.193Z,10.70
2019-02-22T22:17:43.705Z,10.80
2019-02-22T22:20:12.174Z,10.80
2019-02-22T22:22:40.648Z,10.80
2019-02-22T22:25:10.953Z,10.90
2019-02-22T22:27:39.382Z,10.90
2019-02-22T22:30:12.896Z,10.90
2019-02-22T22:32:41.431Z,10.90
2019-02-22T22:35:14.244Z,10.80
2019-02-22T22:37:42.694Z,10.90
2019-02-22T22:40:11.318Z,10.80
2019-02-22T22:42:39.796Z,10.80
2019-02-22T22:45:16.314Z,10.70
2019-02-22T22:47:44.097Z,10.70
2019-02-22T22:50:14.658Z,10.60
2019-02-22T22:52:43.108Z,10.60
2019-02-22T22:55:11.670Z,10.60
2019-02-22T22:57:40.094Z,10.60
2019-02-22T23:00:25.376Z,10.70
2019-02-22T23:02:53.817Z,10.60
2019-02-22T23:05:22.222Z,10.60
2019-02-22T23:07:50.752Z,10.60
2019-02-22T23:10:19.182Z,10.60
2019-02-22T23:12:47.641Z,10.60
2019-02-22T23:15:16.165Z,10.60
2019-02-22T23:17:44.629Z,10.60
2019-02-22T23:20:13.057Z,10.60
2019-02-22T23:22:41.519Z,10.60
2019-02-22T23:25:09.985Z,10.60
2019-02-22T23:27:38.432Z,10.50
2019-02-22T23:30:08.276Z,10.40
2019-02-22T23:32:36.688Z,10.20
2019-02-22T23:35:06.046Z,9.90
2019-02-22T23:37:34.582Z,9.80
2019-02-22T23:40:03.037Z,9.70
2019-02-22T23:42:31.507Z,9.60
2019-02-22T23:45:00.050Z,9.60
2019-02-22T23:47:28.538Z,9.50
2019-02-22T23:49:57.027Z,9.60
2019-02-22T23:52:25.483Z,9.40
2019-02-22T23:54:53.840Z,9.30
2019-02-22T23:57:22.231Z,9.20
2019-02-22T23:59:50.764Z,9.20
